sensor_id;sensor_type;location;lat;lon;timestamp;pressure;altitude;pressure_sealevel;temperature;humidity
13029;BME280;6581;42.662;23.402;2022-11-20T00:02:17;94627.47;;;14.97;100.00
13029;BME280;6581;42.662;23.402;2022-11-20T00:04:56;94629.63;;;15.06;100.00
13029;BME280;6581;42.662;23.402;2022-11-20T00:07:23;94641.88;;;15.00;100.00
13029;BME280;6581;42.662;23.402;2022-11-20T00:09:52;94637.25;;;15.04;100.00
13029;BME280;6581;42.662;23.402;2022-11-20T00:12:48;94660.44;;;15.11;100.00
13029;BME280;6581;42.662;23.402;2022-11-20T00:15:21;94643.84;;;14.96;100.00
13029;BME280;6581;42.662;23.402;2022-11-20T00:17:48;94645.38;;;14.97;100.00
13029;BME280;6581;42.662;23.402;2022-11-20T00:20:15;94636.56;;;15.00;100.00
13029;BME280;6581;42.662;23.402;2022-11-20T00:22:49;94639.22;;;15.00;100.00
13029;BME280;6581;42.662;23.402;2022-11-20T00:25:18;94632.16;;;15.17;100.00
13029;BME280;6581;42.662;23.402;2022-11-20T00:27:45;94614.53;;;15.23;98.38
13029;BME280;6581;42.662;23.402;2022-11-20T00:30:13;94619.34;;;15.31;96.91
13029;BME280;6581;42.662;23.402;2022-11-20T00:32:40;94637.03;;;15.52;97.24
13029;BME280;6581;42.662;23.402;2022-11-20T00:35:08;94623.84;;;15.65;96.62
13029;BME280;6581;42.662;23.402;2022-11-20T00:37:36;94628.91;;;15.59;96.85
13029;BME280;6581;42.662;23.402;2022-11-20T00:40:06;94627.75;;;15.60;97.38
13029;BME280;6581;42.662;23.402;2022-11-20T00:42:34;94645.22;;;15.65;97.40
13029;BME280;6581;42.662;23.402;2022-11-20T00:45:01;94633.72;;;15.68;97.22
13029;BME280;6581;42.662;23.402;2022-11-20T00:47:29;94633.03;;;15.64;96.80
13029;BME280;6581;42.662;23.402;2022-11-20T00:49:56;94648.19;;;15.70;95.61
13029;BME280;6581;42.662;23.402;2022-11-20T00:52:23;94652.78;;;15.70;95.90
13029;BME280;6581;42.662;23.402;2022-11-20T00:54:50;94648.06;;;15.77;93.90
13029;BME280;6581;42.662;23.402;2022-11-20T00:57:44;94647.78;;;15.95;90.11
13029;BME280;6581;42.662;23.402;2022-11-20T01:00:11;94665.09;;;16.10;90.46
13029;BME280;6581;42.662;23.402;2022-11-20T01:02:38;94656.69;;;16.12;92.10
13029;BME280;6581;42.662;23.402;2022-11-20T01:05:06;94632.28;;;16.10;91.12
13029;BME280;6581;42.662;23.402;2022-11-20T01:07:33;94665.03;;;16.14;90.72
13029;BME280;6581;42.662;23.402;2022-11-20T01:10:01;94650.13;;;16.16;90.21
13029;BME280;6581;42.662;23.402;2022-11-20T01:12:28;94636.41;;;16.14;90.68
13029;BME280;6581;42.662;23.402;2022-11-20T01:14:57;94620.44;;;16.11;90.40
13029;BME280;6581;42.662;23.402;2022-11-20T01:17:24;94626.94;;;16.10;90.85
13029;BME280;6581;42.662;23.402;2022-11-20T01:19:51;94628.59;;;16.04;92.13
13029;BME280;6581;42.662;23.402;2022-11-20T01:22:18;94625.84;;;16.07;91.19
13029;BME280;6581;42.662;23.402;2022-11-20T01:24:45;94630.66;;;15.92;91.04
13029;BME280;6581;42.662;23.402;2022-11-20T01:27:12;94626.78;;;15.97;90.46
13029;BME280;6581;42.662;23.402;2022-11-20T01:29:39;94617.94;;;16.00;90.75
13029;BME280;6581;42.662;23.402;2022-11-20T01:32:07;94616.44;;;15.99;90.18
13029;BME280;6581;42.662;23.402;2022-11-20T01:34:34;94615.56;;;16.06;90.28
13029;BME280;6581;42.662;23.402;2022-11-20T01:37:03;94599.19;;;16.04;90.27
13029;BME280;6581;42.662;23.402;2022-11-20T01:39:30;94601.22;;;15.96;91.08
13029;BME280;6581;42.662;23.402;2022-11-20T01:41:57;94595.13;;;15.95;92.66
13029;BME280;6581;42.662;23.402;2022-11-20T01:44:52;94587.94;;;15.92;93.21
13029;BME280;6581;42.662;23.402;2022-11-20T01:47:34;94591.97;;;15.81;94.38
13029;BME280;6581;42.662;23.402;2022-11-20T01:50:06;94597.41;;;15.74;95.36
13029;BME280;6581;42.662;23.402;2022-11-20T01:52:41;94590.97;;;15.71;95.24
13029;BME280;6581;42.662;23.402;2022-11-20T01:55:14;94593.34;;;15.66;95.52
13029;BME280;6581;42.662;23.402;2022-11-20T01:57:43;94601.34;;;15.66;95.51
13029;BME280;6581;42.662;23.402;2022-11-20T02:00:13;94591.75;;;15.68;94.90
13029;BME280;6581;42.662;23.402;2022-11-20T02:02:46;94587.53;;;15.71;95.36
13029;BME280;6581;42.662;23.402;2022-11-20T02:05:19;94578.47;;;15.65;94.64
13029;BME280;6581;42.662;23.402;2022-11-20T02:07:50;94572.91;;;15.56;94.70
13029;BME280;6581;42.662;23.402;2022-11-20T02:10:17;94585.91;;;15.54;95.37
13029;BME280;6581;42.662;23.402;2022-11-20T02:12:45;94587.31;;;15.62;93.39
13029;BME280;6581;42.662;23.402;2022-11-20T02:15:32;94590.53;;;15.73;93.62
13029;BME280;6581;42.662;23.402;2022-11-20T02:18:01;94605.34;;;15.77;92.28
13029;BME280;6581;42.662;23.402;2022-11-20T02:20:28;94606.34;;;15.87;91.29
13029;BME280;6581;42.662;23.402;2022-11-20T02:22:58;94604.31;;;15.94;89.75
13029;BME280;6581;42.662;23.402;2022-11-20T02:25:30;94595.78;;;16.03;87.54
13029;BME280;6581;42.662;23.402;2022-11-20T02:27:58;94602.41;;;16.15;87.87
13029;BME280;6581;42.662;23.402;2022-11-20T02:30:26;94611.88;;;16.19;87.27
13029;BME280;6581;42.662;23.402;2022-11-20T02:32:53;94591.00;;;16.34;82.54
13029;BME280;6581;42.662;23.402;2022-11-20T02:35:43;94604.94;;;16.45;84.01
13029;BME280;6581;42.662;23.402;2022-11-20T02:38:10;94607.28;;;16.63;80.93
13029;BME280;6581;42.662;23.402;2022-11-20T02:40:39;94608.31;;;16.69;81.77
13029;BME280;6581;42.662;23.402;2022-11-20T02:43:06;94626.53;;;16.74;82.90
13029;BME280;6581;42.662;23.402;2022-11-20T02:45:33;94618.13;;;16.75;81.23
13029;BME280;6581;42.662;23.402;2022-11-20T02:48:00;94611.06;;;16.85;79.76
13029;BME280;6581;42.662;23.402;2022-11-20T02:50:27;94626.81;;;16.99;77.05
13029;BME280;6581;42.662;23.402;2022-11-20T02:52:55;94621.75;;;17.21;76.37
13029;BME280;6581;42.662;23.402;2022-11-20T02:55:23;94636.09;;;17.31;75.02
13029;BME280;6581;42.662;23.402;2022-11-20T02:57:51;94637.84;;;17.37;73.93
13029;BME280;6581;42.662;23.402;2022-11-20T03:00:19;94651.72;;;17.68;71.96
13029;BME280;6581;42.662;23.402;2022-11-20T03:02:46;94661.44;;;17.94;70.77
13029;BME280;6581;42.662;23.402;2022-11-20T03:05:13;94649.88;;;17.97;70.62
13029;BME280;6581;42.662;23.402;2022-11-20T03:07:40;94666.47;;;18.08;69.46
13029;BME280;6581;42.662;23.402;2022-11-20T03:10:08;94671.41;;;18.10;70.19
13029;BME280;6581;42.662;23.402;2022-11-20T03:12:35;94661.91;;;18.22;69.79
13029;BME280;6581;42.662;23.402;2022-11-20T03:15:04;94663.09;;;18.37;68.96
13029;BME280;6581;42.662;23.402;2022-11-20T03:17:32;94665.16;;;18.45;68.02
13029;BME280;6581;42.662;23.402;2022-11-20T03:19:59;94665.06;;;18.49;68.32
13029;BME280;6581;42.662;23.402;2022-11-20T03:22:28;94654.19;;;18.56;67.27
13029;BME280;6581;42.662;23.402;2022-11-20T03:24:55;94676.09;;;18.67;66.72
13029;BME280;6581;42.662;23.402;2022-11-20T03:27:22;94679.88;;;18.70;66.37
13029;BME280;6581;42.662;23.402;2022-11-20T03:29:50;94681.63;;;18.76;66.11
13029;BME280;6581;42.662;23.402;2022-11-20T03:32:18;94683.13;;;18.77;66.04
13029;BME280;6581;42.662;23.402;2022-11-20T03:34:45;94688.81;;;18.79;65.85
13029;BME280;6581;42.662;23.402;2022-11-20T03:37:12;94685.72;;;18.81;66.04
13029;BME280;6581;42.662;23.402;2022-11-20T03:39:39;94676.34;;;18.73;66.05
13029;BME280;6581;42.662;23.402;2022-11-20T03:42:06;94680.84;;;18.76;65.50
13029;BME280;6581;42.662;23.402;2022-11-20T03:44:54;94694.72;;;18.74;65.43
13029;BME280;6581;42.662;23.402;2022-11-20T03:47:23;94684.41;;;18.73;65.90
13029;BME280;6581;42.662;23.402;2022-11-20T03:49:50;94690.94;;;18.72;66.41
13029;BME280;6581;42.662;23.402;2022-11-20T03:52:17;94689.94;;;18.66;66.02
13029;BME280;6581;42.662;23.402;2022-11-20T03:54:44;94691.03;;;18.68;65.21
13029;BME280;6581;42.662;23.402;2022-11-20T03:57:12;94680.25;;;18.55;64.60
13029;BME280;6581;42.662;23.402;2022-11-20T03:59:39;94687.94;;;18.70;64.12
13029;BME280;6581;42.662;23.402;2022-11-20T04:02:06;94681.81;;;18.69;64.22
13029;BME280;6581;42.662;23.402;2022-11-20T04:04:35;94674.94;;;18.68;64.47
13029;BME280;6581;42.662;23.402;2022-11-20T04:07:03;94673.66;;;18.73;64.23
13029;BME280;6581;42.662;23.402;2022-11-20T04:09:31;94676.66;;;18.75;64.57
13029;BME280;6581;42.662;23.402;2022-11-20T04:11:58;94679.97;;;18.66;64.74
13029;BME280;6581;42.662;23.402;2022-11-20T04:14:25;94686.53;;;18.65;64.21
13029;BME280;6581;42.662;23.402;2022-11-20T04:16:52;94682.97;;;18.68;63.58
13029;BME280;6581;42.662;23.402;2022-11-20T04:19:19;94694.72;;;18.74;63.88
13029;BME280;6581;42.662;23.402;2022-11-20T04:21:48;94695.44;;;18.75;64.13
13029;BME280;6581;42.662;23.402;2022-11-20T04:24:15;94704.34;;;18.72;63.53
13029;BME280;6581;42.662;23.402;2022-11-20T04:26:42;94698.88;;;18.75;62.45
13029;BME280;6581;42.662;23.402;2022-11-20T04:29:10;94715.41;;;18.74;62.39
13029;BME280;6581;42.662;23.402;2022-11-20T04:31:37;94711.22;;;18.73;62.34
13029;BME280;6581;42.662;23.402;2022-11-20T04:34:06;94716.50;;;18.76;62.27
13029;BME280;6581;42.662;23.402;2022-11-20T04:36:34;94707.16;;;18.81;62.43
13029;BME280;6581;42.662;23.402;2022-11-20T04:39:06;94700.09;;;18.74;61.47
13029;BME280;6581;42.662;23.402;2022-11-20T04:41:35;94707.44;;;18.70;61.97
13029;BME280;6581;42.662;23.402;2022-11-20T04:44:04;94706.47;;;18.64;62.70
13029;BME280;6581;42.662;23.402;2022-11-20T04:46:33;94709.66;;;18.59;63.05
13029;BME280;6581;42.662;23.402;2022-11-20T04:49:00;94688.63;;;18.57;62.98
13029;BME280;6581;42.662;23.402;2022-11-20T04:51:28;94679.50;;;18.55;63.82
13029;BME280;6581;42.662;23.402;2022-11-20T04:53:55;94684.84;;;18.55;63.31
13029;BME280;6581;42.662;23.402;2022-11-20T04:56:24;94682.09;;;18.58;63.93
13029;BME280;6581;42.662;23.402;2022-11-20T04:58:51;94675.78;;;18.65;63.66
13029;BME280;6581;42.662;23.402;2022-11-20T05:01:20;94675.31;;;18.54;64.41
13029;BME280;6581;42.662;23.402;2022-11-20T05:03:47;94675.38;;;18.50;63.73
13029;BME280;6581;42.662;23.402;2022-11-20T05:06:18;94681.34;;;18.42;64.48
13029;BME280;6581;42.662;23.402;2022-11-20T05:08:46;94669.25;;;18.50;63.89
13029;BME280;6581;42.662;23.402;2022-11-20T05:11:15;94679.31;;;18.46;65.13
13029;BME280;6581;42.662;23.402;2022-11-20T05:13:44;94687.03;;;18.44;66.09
13029;BME280;6581;42.662;23.402;2022-11-20T05:16:12;94689.56;;;18.35;67.31
13029;BME280;6581;42.662;23.402;2022-11-20T05:18:40;94669.72;;;18.16;69.24
13029;BME280;6581;42.662;23.402;2022-11-20T05:21:08;94670.31;;;18.07;71.54
13029;BME280;6581;42.662;23.402;2022-11-20T05:23:36;94663.09;;;17.88;73.50
13029;BME280;6581;42.662;23.402;2022-11-20T05:26:05;94671.41;;;17.78;74.95
13029;BME280;6581;42.662;23.402;2022-11-20T05:28:33;94650.53;;;17.69;75.66
13029;BME280;6581;42.662;23.402;2022-11-20T05:31:09;94644.09;;;17.66;77.04
13029;BME280;6581;42.662;23.402;2022-11-20T05:34:01;94636.03;;;17.50;78.03
13029;BME280;6581;42.662;23.402;2022-11-20T05:36:29;94642.56;;;17.49;78.26
13029;BME280;6581;42.662;23.402;2022-11-20T05:38:56;94645.31;;;17.46;78.45
13029;BME280;6581;42.662;23.402;2022-11-20T05:41:24;94638.69;;;17.34;78.58
13029;BME280;6581;42.662;23.402;2022-11-20T05:43:51;94646.38;;;17.32;79.07
13029;BME280;6581;42.662;23.402;2022-11-20T05:46:21;94634.47;;;17.33;79.33
13029;BME280;6581;42.662;23.402;2022-11-20T05:48:48;94630.38;;;17.28;78.61
13029;BME280;6581;42.662;23.402;2022-11-20T05:51:17;94623.09;;;17.29;79.03
13029;BME280;6581;42.662;23.402;2022-11-20T05:53:44;94607.72;;;17.33;78.07
13029;BME280;6581;42.662;23.402;2022-11-20T05:56:13;94604.38;;;17.29;77.69
13029;BME280;6581;42.662;23.402;2022-11-20T05:58:41;94610.38;;;17.33;76.52
13029;BME280;6581;42.662;23.402;2022-11-20T06:01:16;94634.75;;;17.39;76.23
13029;BME280;6581;42.662;23.402;2022-11-20T06:03:48;94635.16;;;17.37;76.87
13029;BME280;6581;42.662;23.402;2022-11-20T06:06:17;94625.56;;;17.40;76.70
13029;BME280;6581;42.662;23.402;2022-11-20T06:08:45;94634.66;;;17.42;76.88
13029;BME280;6581;42.662;23.402;2022-11-20T06:11:13;94633.91;;;17.42;76.63
13029;BME280;6581;42.662;23.402;2022-11-20T06:13:41;94623.91;;;17.46;76.01
13029;BME280;6581;42.662;23.402;2022-11-20T06:16:09;94624.56;;;17.50;75.28
13029;BME280;6581;42.662;23.402;2022-11-20T06:18:37;94641.03;;;17.48;75.09
13029;BME280;6581;42.662;23.402;2022-11-20T06:21:08;94636.03;;;17.50;74.02
13029;BME280;6581;42.662;23.402;2022-11-20T06:23:37;94638.28;;;17.52;74.09
13029;BME280;6581;42.662;23.402;2022-11-20T06:26:06;94649.19;;;17.61;74.29
13029;BME280;6581;42.662;23.402;2022-11-20T06:28:34;94663.41;;;17.58;74.55
13029;BME280;6581;42.662;23.402;2022-11-20T06:31:02;94661.69;;;17.67;74.84
13029;BME280;6581;42.662;23.402;2022-11-20T06:33:30;94664.69;;;17.69;74.50
13029;BME280;6581;42.662;23.402;2022-11-20T06:35:57;94664.28;;;17.71;74.34
13029;BME280;6581;42.662;23.402;2022-11-20T06:38:28;94669.72;;;17.67;73.97
13029;BME280;6581;42.662;23.402;2022-11-20T06:40:55;94675.00;;;17.71;74.83
13029;BME280;6581;42.662;23.402;2022-11-20T06:43:24;94652.72;;;17.74;74.52
13029;BME280;6581;42.662;23.402;2022-11-20T06:45:52;94663.38;;;17.78;74.41
13029;BME280;6581;42.662;23.402;2022-11-20T06:48:19;94659.59;;;17.75;73.31
13029;BME280;6581;42.662;23.402;2022-11-20T06:50:46;94664.53;;;17.77;73.15
13029;BME280;6581;42.662;23.402;2022-11-20T06:53:13;94668.56;;;17.85;72.54
13029;BME280;6581;42.662;23.402;2022-11-20T06:55:44;94675.91;;;17.81;73.01
13029;BME280;6581;42.662;23.402;2022-11-20T06:58:11;94675.06;;;17.84;71.87
13029;BME280;6581;42.662;23.402;2022-11-20T07:00:38;94670.56;;;17.81;71.84
13029;BME280;6581;42.662;23.402;2022-11-20T07:03:05;94689.13;;;17.88;71.09
13029;BME280;6581;42.662;23.402;2022-11-20T07:05:33;94688.06;;;17.85;70.50
13029;BME280;6581;42.662;23.402;2022-11-20T07:08:00;94688.81;;;17.86;71.31
13029;BME280;6581;42.662;23.402;2022-11-20T07:10:37;94684.47;;;17.92;71.34
13029;BME280;6581;42.662;23.402;2022-11-20T07:13:08;94687.66;;;17.87;69.84
13029;BME280;6581;42.662;23.402;2022-11-20T07:15:35;94684.13;;;17.90;69.06
13029;BME280;6581;42.662;23.402;2022-11-20T07:18:03;94678.28;;;17.95;68.81
13029;BME280;6581;42.662;23.402;2022-11-20T07:20:31;94690.00;;;18.01;69.36
13029;BME280;6581;42.662;23.402;2022-11-20T07:22:58;94699.63;;;17.98;68.56
13029;BME280;6581;42.662;23.402;2022-11-20T07:25:27;94708.41;;;17.99;68.71
13029;BME280;6581;42.662;23.402;2022-11-20T07:27:56;94696.09;;;18.01;69.06
13029;BME280;6581;42.662;23.402;2022-11-20T07:30:25;94693.41;;;18.01;68.94
13029;BME280;6581;42.662;23.402;2022-11-20T07:32:53;94684.72;;;17.97;67.99
13029;BME280;6581;42.662;23.402;2022-11-20T07:35:21;94686.63;;;17.97;67.42
13029;BME280;6581;42.662;23.402;2022-11-20T07:37:48;94694.16;;;18.02;67.56
13029;BME280;6581;42.662;23.402;2022-11-20T07:40:15;94703.97;;;18.08;67.59
13029;BME280;6581;42.662;23.402;2022-11-20T07:42:47;94700.97;;;18.06;67.78
13029;BME280;6581;42.662;23.402;2022-11-20T07:45:39;94703.22;;;18.08;67.91
13029;BME280;6581;42.662;23.402;2022-11-20T07:48:07;94705.16;;;18.07;68.29
13029;BME280;6581;42.662;23.402;2022-11-20T07:50:34;94703.38;;;18.17;68.55
13029;BME280;6581;42.662;23.402;2022-11-20T07:53:02;94694.84;;;18.06;68.39
13029;BME280;6581;42.662;23.402;2022-11-20T07:55:30;94701.81;;;18.03;68.92
13029;BME280;6581;42.662;23.402;2022-11-20T07:57:58;94710.59;;;18.04;68.68
13029;BME280;6581;42.662;23.402;2022-11-20T08:00:26;94709.34;;;18.08;67.74
13029;BME280;6581;42.662;23.402;2022-11-20T08:02:54;94713.75;;;18.15;67.88
13029;BME280;6581;42.662;23.402;2022-11-20T08:05:25;94709.16;;;18.15;68.13
13029;BME280;6581;42.662;23.402;2022-11-20T08:08:19;94709.09;;;18.19;67.72
13029;BME280;6581;42.662;23.402;2022-11-20T08:10:56;94715.28;;;18.16;68.39
13029;BME280;6581;42.662;23.402;2022-11-20T08:13:43;94708.41;;;18.15;69.21
13029;BME280;6581;42.662;23.402;2022-11-20T08:16:24;94701.56;;;18.14;68.57
13029;BME280;6581;42.662;23.402;2022-11-20T08:18:53;94697.69;;;18.15;68.65
13029;BME280;6581;42.662;23.402;2022-11-20T08:21:29;94680.34;;;18.20;68.12
13029;BME280;6581;42.662;23.402;2022-11-20T08:23:57;94683.72;;;18.24;67.54
13029;BME280;6581;42.662;23.402;2022-11-20T08:26:25;94687.81;;;18.28;67.18
13029;BME280;6581;42.662;23.402;2022-11-20T08:28:53;94675.22;;;18.25;67.07
13029;BME280;6581;42.662;23.402;2022-11-20T08:31:21;94680.50;;;18.29;66.03
13029;BME280;6581;42.662;23.402;2022-11-20T08:33:49;94693.09;;;18.32;66.13
13029;BME280;6581;42.662;23.402;2022-11-20T08:36:18;94696.84;;;18.34;65.32
13029;BME280;6581;42.662;23.402;2022-11-20T08:38:49;94678.72;;;18.38;65.78
13029;BME280;6581;42.662;23.402;2022-11-20T08:41:21;94689.81;;;18.40;64.78
13029;BME280;6581;42.662;23.402;2022-11-20T08:43:53;94685.59;;;18.39;64.96
13029;BME280;6581;42.662;23.402;2022-11-20T08:46:26;94688.44;;;18.48;64.94
13029;BME280;6581;42.662;23.402;2022-11-20T08:48:53;94693.72;;;18.52;64.43
13029;BME280;6581;42.662;23.402;2022-11-20T08:51:22;94710.50;;;18.56;64.42
13029;BME280;6581;42.662;23.402;2022-11-20T08:53:51;94728.44;;;18.59;64.12
13029;BME280;6581;42.662;23.402;2022-11-20T08:56:22;94738.56;;;18.68;64.46
13029;BME280;6581;42.662;23.402;2022-11-20T08:58:52;94758.03;;;18.55;64.72
13029;BME280;6581;42.662;23.402;2022-11-20T09:01:20;94755.91;;;18.31;66.56
13029;BME280;6581;42.662;23.402;2022-11-20T09:03:47;94737.66;;;18.26;66.71
13029;BME280;6581;42.662;23.402;2022-11-20T09:06:14;94738.75;;;18.28;67.00
13029;BME280;6581;42.662;23.402;2022-11-20T09:08:43;94739.22;;;18.39;67.39
13029;BME280;6581;42.662;23.402;2022-11-20T09:11:11;94736.28;;;18.34;67.53
13029;BME280;6581;42.662;23.402;2022-11-20T09:13:43;94732.34;;;18.38;67.23
13029;BME280;6581;42.662;23.402;2022-11-20T09:16:10;94743.03;;;18.42;67.32
13029;BME280;6581;42.662;23.402;2022-11-20T09:18:38;94751.47;;;18.40;68.79
13029;BME280;6581;42.662;23.402;2022-11-20T09:21:10;94743.53;;;18.37;69.91
13029;BME280;6581;42.662;23.402;2022-11-20T09:23:38;94733.88;;;18.23;71.55
13029;BME280;6581;42.662;23.402;2022-11-20T09:26:10;94747.28;;;18.07;72.90
13029;BME280;6581;42.662;23.402;2022-11-20T09:28:38;94751.63;;;18.01;73.47
13029;BME280;6581;42.662;23.402;2022-11-20T09:31:05;94740.56;;;17.83;75.48
13029;BME280;6581;42.662;23.402;2022-11-20T09:33:33;94738.72;;;17.60;77.78
13029;BME280;6581;42.662;23.402;2022-11-20T09:36:00;94732.16;;;17.45;76.40
13029;BME280;6581;42.662;23.402;2022-11-20T09:38:27;94725.50;;;17.33;76.06
13029;BME280;6581;42.662;23.402;2022-11-20T09:40:57;94720.31;;;17.06;78.25
13029;BME280;6581;42.662;23.402;2022-11-20T09:43:35;94700.13;;;17.02;78.68
13029;BME280;6581;42.662;23.402;2022-11-20T09:46:15;94714.63;;;17.04;78.39
13029;BME280;6581;42.662;23.402;2022-11-20T09:48:55;94711.38;;;16.93;79.38
13029;BME280;6581;42.662;23.402;2022-11-20T09:51:35;94703.22;;;17.00;79.18
13029;BME280;6581;42.662;23.402;2022-11-20T09:54:11;94712.00;;;17.01;80.49
13029;BME280;6581;42.662;23.402;2022-11-20T09:56:46;94713.22;;;16.96;81.72
13029;BME280;6581;42.662;23.402;2022-11-20T09:59:32;94719.06;;;16.91;82.00
13029;BME280;6581;42.662;23.402;2022-11-20T10:02:01;94724.69;;;16.97;82.66
13029;BME280;6581;42.662;23.402;2022-11-20T10:04:31;94722.16;;;16.90;82.02
13029;BME280;6581;42.662;23.402;2022-11-20T10:07:04;94704.84;;;16.74;83.87
13029;BME280;6581;42.662;23.402;2022-11-20T10:09:38;94674.22;;;16.56;82.66
13029;BME280;6581;42.662;23.402;2022-11-20T10:12:17;94660.09;;;16.35;85.71
13029;BME280;6581;42.662;23.402;2022-11-20T10:15:00;94658.66;;;16.31;87.39
13029;BME280;6581;42.662;23.402;2022-11-20T10:17:48;94661.19;;;16.15;92.24
13029;BME280;6581;42.662;23.402;2022-11-20T10:20:25;94655.22;;;16.30;89.58
13029;BME280;6581;42.662;23.402;2022-11-20T10:23:11;94642.34;;;16.45;89.68
13029;BME280;6581;42.662;23.402;2022-11-20T10:25:46;94657.56;;;16.48;90.69
13029;BME280;6581;42.662;23.402;2022-11-20T10:28:32;94654.00;;;16.55;90.98
13029;BME280;6581;42.662;23.402;2022-11-20T10:31:08;94634.28;;;16.49;92.48
13029;BME280;6581;42.662;23.402;2022-11-20T10:33:40;94643.31;;;16.35;96.22
13029;BME280;6581;42.662;23.402;2022-11-20T10:36:15;94642.00;;;16.43;91.88
13029;BME280;6581;42.662;23.402;2022-11-20T10:38:46;94660.53;;;16.54;93.70
13029;BME280;6581;42.662;23.402;2022-11-20T10:41:21;94664.25;;;16.60;94.05
13029;BME280;6581;42.662;23.402;2022-11-20T10:44:00;94663.75;;;16.45;96.06
13029;BME280;6581;42.662;23.402;2022-11-20T10:46:37;94663.25;;;16.50;96.77
13029;BME280;6581;42.662;23.402;2022-11-20T10:49:32;94664.00;;;16.51;96.52
13029;BME280;6581;42.662;23.402;2022-11-20T10:52:08;94687.59;;;16.56;97.02
13029;BME280;6581;42.662;23.402;2022-11-20T10:54:42;94678.72;;;16.62;96.28
13029;BME280;6581;42.662;23.402;2022-11-20T10:57:23;94664.06;;;16.47;98.84
13029;BME280;6581;42.662;23.402;2022-11-20T11:00:00;94684.66;;;16.27;100.00
13029;BME280;6581;42.662;23.402;2022-11-20T11:02:35;94710.69;;;16.23;100.00
13029;BME280;6581;42.662;23.402;2022-11-20T11:05:20;94690.94;;;16.17;100.00
13029;BME280;6581;42.662;23.402;2022-11-20T11:07:52;94677.75;;;16.06;100.00
13029;BME280;6581;42.662;23.402;2022-11-20T11:10:23;94708.47;;;15.94;100.00
13029;BME280;6581;42.662;23.402;2022-11-20T11:12:51;94722.09;;;16.04;100.00
13029;BME280;6581;42.662;23.402;2022-11-20T11:15:26;94721.50;;;16.16;100.00
13029;BME280;6581;42.662;23.402;2022-11-20T11:17:56;94724.94;;;16.16;100.00
13029;BME280;6581;42.662;23.402;2022-11-20T11:20:25;94744.94;;;16.05;100.00
13029;BME280;6581;42.662;23.402;2022-11-20T11:22:54;94747.22;;;16.06;100.00
13029;BME280;6581;42.662;23.402;2022-11-20T11:25:27;94757.28;;;15.68;100.00
13029;BME280;6581;42.662;23.402;2022-11-20T11:27:56;94745.59;;;15.28;100.00
13029;BME280;6581;42.662;23.402;2022-11-20T11:30:26;94711.16;;;15.07;100.00
13029;BME280;6581;42.662;23.402;2022-11-20T11:33:09;94714.63;;;14.70;100.00
13029;BME280;6581;42.662;23.402;2022-11-20T11:35:44;94731.00;;;14.69;100.00
13029;BME280;6581;42.662;23.402;2022-11-20T11:38:14;94743.03;;;14.46;100.00
13029;BME280;6581;42.662;23.402;2022-11-20T11:40:43;94754.16;;;14.34;100.00
13029;BME280;6581;42.662;23.402;2022-11-20T11:43:18;94779.72;;;14.21;100.00
13029;BME280;6581;42.662;23.402;2022-11-20T11:46:06;94783.22;;;14.14;100.00
13029;BME280;6581;42.662;23.402;2022-11-20T11:48:40;94767.59;;;14.20;100.00
13029;BME280;6581;42.662;23.402;2022-11-20T11:51:08;94770.97;;;14.24;98.97
13029;BME280;6581;42.662;23.402;2022-11-20T11:53:40;94767.13;;;14.29;97.83
13029;BME280;6581;42.662;23.402;2022-11-20T11:56:09;94749.97;;;14.37;97.57
13029;BME280;6581;42.662;23.402;2022-11-20T11:58:43;94764.38;;;14.39;100.00
13029;BME280;6581;42.662;23.402;2022-11-20T12:01:21;94737.00;;;14.39;100.00
13029;BME280;6581;42.662;23.402;2022-11-20T12:04:02;94730.13;;;14.41;100.00
13029;BME280;6581;42.662;23.402;2022-11-20T12:06:32;94722.50;;;14.40;100.00
13029;BME280;6581;42.662;23.402;2022-11-20T12:09:04;94716.84;;;14.34;100.00
13029;BME280;6581;42.662;23.402;2022-11-20T12:11:36;94719.59;;;14.24;100.00
13029;BME280;6581;42.662;23.402;2022-11-20T12:14:11;94725.28;;;14.26;100.00
13029;BME280;6581;42.662;23.402;2022-11-20T12:16:44;94732.22;;;14.16;100.00
13029;BME280;6581;42.662;23.402;2022-11-20T12:19:14;94736.06;;;14.11;100.00
13029;BME280;6581;42.662;23.402;2022-11-20T12:21:56;94740.63;;;14.07;100.00
13029;BME280;6581;42.662;23.402;2022-11-20T12:24:50;94738.03;;;14.00;100.00
13029;BME280;6581;42.662;23.402;2022-11-20T12:27:58;94745.00;;;13.80;100.00
13029;BME280;6581;42.662;23.402;2022-11-20T12:30:30;94752.72;;;13.64;100.00
13029;BME280;6581;42.662;23.402;2022-11-20T12:33:08;94747.09;;;13.55;100.00
13029;BME280;6581;42.662;23.402;2022-11-20T12:35:52;94755.09;;;13.51;98.17
13029;BME280;6581;42.662;23.402;2022-11-20T12:38:39;94754.72;;;13.46;98.40
13029;BME280;6581;42.662;23.402;2022-11-20T12:41:19;94730.38;;;13.51;100.00
13029;BME280;6581;42.662;23.402;2022-11-20T12:44:10;94693.88;;;13.55;100.00
13029;BME280;6581;42.662;23.402;2022-11-20T12:47:11;94632.97;;;13.64;99.33
13029;BME280;6581;42.662;23.402;2022-11-20T12:49:47;94637.06;;;13.75;98.73
13029;BME280;6581;42.662;23.402;2022-11-20T12:52:34;94659.00;;;13.90;97.80
13029;BME280;6581;42.662;23.402;2022-11-20T12:55:22;94657.75;;;14.05;97.41
13029;BME280;6581;42.662;23.402;2022-11-20T12:57:56;94657.31;;;14.10;96.21
13029;BME280;6581;42.662;23.402;2022-11-20T13:00:25;94655.66;;;14.24;98.70
13029;BME280;6581;42.662;23.402;2022-11-20T13:06:03;94649.19;;;14.25;100.00
13029;BME280;6581;42.662;23.402;2022-11-20T13:08:36;94648.81;;;14.23;99.26
13029;BME280;6581;42.662;23.402;2022-11-20T13:11:09;94642.41;;;14.16;99.89
13029;BME280;6581;42.662;23.402;2022-11-20T13:13:47;94639.31;;;14.25;100.00
13029;BME280;6581;42.662;23.402;2022-11-20T13:16:26;94610.22;;;14.41;96.67
13029;BME280;6581;42.662;23.402;2022-11-20T13:19:01;94585.50;;;14.71;97.12
13029;BME280;6581;42.662;23.402;2022-11-20T13:21:36;94586.78;;;14.90;95.02
13029;BME280;6581;42.662;23.402;2022-11-20T13:24:06;94616.59;;;15.12;92.49